Vera Bisso — WDC3027 — position and weather

sailwx.info

Track history (hours):
 
Tides and Currents Weather Stations Pressure Air Temp Water Temp Dewpoint Dewpoint Depression Visibility Wind Speed Wind Dir Waves Ship Positions

Vera Bisso

Owner: E.N. Bisso & Son, Inc, New Orleans, LA. More information available from US FCC via Universal Licensing System and Coast Guard Vessel Documentation Center.

Last reported at 2016-Jul-16 07:10 UTC. Time now 2016-Jul-26 10:17 UTC.
Position N 29°57' W 090°23'.
Warning: this ship's position is 10 days out of date.

Length 30 m; draft 6 m.

Type: Tug. MMSI: 367001730.

Date/timePositionNaut miles runAvg speedWind from/ knotsBaromVisibWave heightAir tempDewpointWater temp
2016-Jul-16 07:10N 29°57' W 090°23'0 0.0
2016-Jul-16 04:26N 29°57' W 090°23'0 0.0
2016-Jul-16 03:33N 29°57' W 090°23'0 0.0
2016-Jul-16 02:31N 29°57' W 090°23'0 0.0
2016-Jul-16 01:06N 29°57' W 090°23'0 0.0
2016-Jul-16 00:29N 29°57' W 090°23'12 0.5
2016-Jul-15 01:32N 29°57' W 090°09'2 0.5
2016-Jul-14 21:28N 29°55' W 090°08'0 0.0
2016-Jul-14 20:33N 29°55' W 090°08'0 0.0
2016-Jul-14 19:16N 29°55' W 090°08'0 0.0
2016-Jul-14 18:33N 29°55' W 090°08'0 0.0
2016-Jul-14 17:33N 29°55' W 090°08'0 0.0
2016-Jul-14 16:33N 29°55' W 090°08'0 0.0
2016-Jul-14 15:33N 29°55' W 090°08'0 0.0
2016-Jul-14 14:31N 29°55' W 090°08'0 0.2
2016-Jul-14 13:33N 29°55' W 090°08'3 2.7
2016-Jul-14 12:33N 29°55' W 090°05'0 0.2
2016-Jul-14 11:33N 29°55' W 090°05'1 0.8
2016-Jul-14 10:33N 29°55' W 090°06'0 0.0
2016-Jul-14 09:33N 29°55' W 090°06'0 0.0
2016-Jul-14 08:33N 29°55' W 090°06'0 0.0
2016-Jul-14 07:33N 29°55' W 090°06'0 0.0
2016-Jul-14 06:33N 29°55' W 090°06'0 0.0
2016-Jul-14 05:33N 29°55' W 090°06'0 0.0
2016-Jul-14 04:33N 29°55' W 090°06'0 0.0
2016-Jul-14 03:33N 29°55' W 090°06'0 0.0
2016-Jul-14 02:33N 29°55' W 090°06'0 0.3
2016-Jul-14 01:33N 29°55' W 090°06'3 2.6
2016-Jul-14 00:33N 29°57' W 090°03'1 0.5
2016-Jul-13 23:34N 29°56' W 090°03'1 0.7
2016-Jul-13 22:33N 29°55' W 090°04'4 3.7
2016-Jul-13 21:33N 29°55' W 090°08'0 0.0
2016-Jul-13 20:33N 29°55' W 090°08'0 0.0
2016-Jul-13 19:17N 29°55' W 090°08'0 0.0
2016-Jul-13 18:33N 29°55' W 090°08'0 0.0
2016-Jul-13 17:33N 29°55' W 090°08'0 0.0
2016-Jul-13 16:33N 29°55' W 090°08'3 3.1
2016-Jul-13 15:33N 29°55' W 090°05'0 0.5
2016-Jul-13 14:33N 29°55' W 090°04'0 0.0
2016-Jul-13 13:33N 29°55' W 090°04'4 3.8
2016-Jul-13 12:33N 29°57' W 090°00'1 0.5
2016-Jul-13 11:33N 29°56' W 089°60'2 1.5
2016-Jul-13 10:33N 29°57' W 090°01'0 0.0
2016-Jul-13 09:33N 29°57' W 090°01'5 5.1
2016-Jul-13 08:33N 29°55' W 090°06'2 2.1
2016-Jul-13 07:29N 29°56' W 090°08'0 0.5
2016-Jul-13 06:33N 29°55' W 090°08'1 0.9
2016-Jul-13 05:28N 29°56' W 090°09'3 3.0
2016-Jul-13 04:33N 29°55' W 090°06'0 0.0
2016-Jul-13 03:33N 29°55' W 090°06'0 0.0
2016-Jul-13 02:33N 29°55' W 090°06'0 0.0
2016-Jul-13 01:30N 29°55' W 090°06'0 0.0
2016-Jul-13 00:32N 29°55' W 090°06'0 0.0
2016-Jul-12 23:33N 29°55' W 090°06'0 0.0
2016-Jul-12 22:33N 29°55' W 090°06'1 1.2
2016-Jul-12 21:33N 29°55' W 090°05'6 6.0
2016-Jul-12 20:31N 29°55' W 090°12'3 2.5
2016-Jul-12 19:30N 29°57' W 090°09'2 2.0
2016-Jul-12 18:33N 29°56' W 090°08'0 0.0
2016-Jul-12 17:33N 29°56' W 090°08'0 0.0
2016-Jul-12 16:33N 29°56' W 090°08'0 0.0
2016-Jul-12 15:33N 29°56' W 090°08'0 0.0
2016-Jul-12 14:33N 29°56' W 090°08'0 0.4
2016-Jul-12 13:33N 29°56' W 090°08'0 0.4
2016-Jul-12 12:33N 29°56' W 090°09'1 0.8
2016-Jul-12 11:33N 29°56' W 090°08'0 0.0
2016-Jul-12 10:34N 29°56' W 090°08'0 0.0
2016-Jul-12 09:33N 29°56' W 090°08'0 0.0
2016-Jul-12 08:33N 29°56' W 090°08'0 0.0
2016-Jul-12 07:33N 29°56' W 090°08'0 0.0
2016-Jul-12 06:33N 29°56' W 090°08'0 0.0
2016-Jul-12 05:33N 29°56' W 090°08'0 0.0
2016-Jul-12 04:33N 29°56' W 090°08'0 0.0
2016-Jul-12 03:33N 29°56' W 090°08'0 0.0
2016-Jul-12 02:33N 29°56' W 090°08'0 0.0
2016-Jul-12 01:33N 29°56' W 090°08'0 0.0
2016-Jul-12 00:33N 29°56' W 090°08'0 0.0
2016-Jul-11 23:33N 29°56' W 090°08'0 0.0
2016-Jul-11 22:33N 29°56' W 090°08'0 0.0
2016-Jul-11 21:33N 29°56' W 090°08'0 0.0
2016-Jul-11 20:34N 29°56' W 090°08'0 0.0
2016-Jul-11 19:33N 29°56' W 090°08'0 0.0
2016-Jul-11 18:33N 29°56' W 090°08'0 0.0
2016-Jul-11 17:33N 29°56' W 090°08'0 0.0
2016-Jul-11 16:33N 29°56' W 090°08'0 0.0
2016-Jul-11 15:33N 29°56' W 090°08'0 0.0
2016-Jul-11 14:33N 29°56' W 090°08'0 0.0
2016-Jul-11 13:33N 29°56' W 090°08'0 0.0
2016-Jul-11 12:32N 29°56' W 090°08'0 0.0
2016-Jul-11 11:33N 29°56' W 090°08'0 0.0
2016-Jul-11 10:33N 29°56' W 090°08'0 0.0
2016-Jul-11 09:33N 29°56' W 090°08'0 0.0
2016-Jul-11 08:33N 29°56' W 090°08'0 0.0
2016-Jul-11 07:33N 29°56' W 090°08'1 1.0
2016-Jul-11 06:33N 29°56' W 090°09'1 0.3
2016-Jul-11 04:33N 29°56' W 090°08'0 0.4
2016-Jul-11 03:30N 29°56' W 090°09'1 1.0
2016-Jul-11 02:34N 29°56' W 090°08'0 0.0
2016-Jul-11 01:33N 29°56' W 090°08'0 0.0
2016-Jul-11 00:33N 29°56' W 090°08'0 0.0
2016-Jul-10 23:33N 29°56' W 090°08'0 0.0
2016-Jul-10 22:33N 29°56' W 090°08'0 0.0
2016-Jul-10 21:33N 29°56' W 090°08'0 0.0
2016-Jul-10 20:33N 29°56' W 090°08'0 0.0
2016-Jul-10 19:33N 29°56' W 090°08'0 0.0
2016-Jul-10 18:33N 29°56' W 090°08'0 0.0
2016-Jul-10 17:33N 29°56' W 090°08'0 0.0
2016-Jul-10 16:33N 29°56' W 090°08'0 0.0
2016-Jul-10 15:33N 29°56' W 090°08'0 0.0
2016-Jul-10 14:33N 29°56' W 090°08'0 0.0
2016-Jul-10 13:33N 29°56' W 090°08'0 0.0
2016-Jul-10 12:33N 29°56' W 090°08'3 2.5
2016-Jul-10 11:33N 29°55' W 090°05'2 2.5
2016-Jul-10 10:33N 29°55' W 090°08'0 0.0
2016-Jul-10 09:33N 29°55' W 090°08'0 0.0
2016-Jul-10 08:33N 29°55' W 090°08'0 0.0
2016-Jul-10 07:33N 29°55' W 090°08'0 0.0
2016-Jul-10 06:33N 29°55' W 090°08'0 0.0
2016-Jul-10 05:33N 29°55' W 090°08'0 0.0
2016-Jul-10 04:33N 29°55' W 090°08'0 0.0
2016-Jul-10 03:33N 29°55' W 090°08'0 0.0
2016-Jul-10 02:33N 29°55' W 090°08'0 0.0
2016-Jul-10 01:33N 29°55' W 090°08'0 0.0
2016-Jul-10 00:33N 29°55' W 090°08'0 0.0
2016-Jul-09 23:33N 29°55' W 090°08'0 0.0
2016-Jul-09 22:34N 29°55' W 090°08'0 0.0
2016-Jul-09 21:33N 29°55' W 090°08'0 0.0
2016-Jul-09 20:33N 29°55' W 090°08'0 0.0
2016-Jul-09 19:33N 29°55' W 090°08'0 0.0
2016-Jul-09 18:33N 29°55' W 090°08'0 0.0
2016-Jul-09 17:33N 29°55' W 090°08'0 0.0
2016-Jul-09 16:34N 29°55' W 090°08'0 0.0
2016-Jul-09 15:33N 29°55' W 090°08'0 0.0
2016-Jul-09 14:33N 29°55' W 090°08'0 0.0
2016-Jul-09 13:34N 29°55' W 090°08'0 0.0
2016-Jul-09 12:33N 29°55' W 090°08'0 0.0
2016-Jul-09 11:34N 29°55' W 090°08'0 0.0
2016-Jul-09 10:34N 29°55' W 090°08'0 0.0
2016-Jul-09 09:33N 29°55' W 090°08'0 0.0
2016-Jul-09 08:33N 29°55' W 090°08'0 0.0
2016-Jul-09 07:33N 29°55' W 090°08'0 0.0
2016-Jul-09 06:34N 29°55' W 090°08'0 0.0
2016-Jul-09 04:33N 29°55' W 090°08'0 0.0
2016-Jul-09 03:33N 29°55' W 090°08'0 0.0
2016-Jul-09 02:33N 29°55' W 090°08'0 0.0
2016-Jul-09 01:33N 29°55' W 090°08'0 0.0
2016-Jul-09 00:34N 29°55' W 090°08'0 0.0
2016-Jul-08 23:33N 29°55' W 090°08'0 0.0
2016-Jul-08 22:33N 29°55' W 090°08'0 0.0
2016-Jul-08 21:33N 29°55' W 090°08'0 0.0
2016-Jul-08 20:33N 29°55' W 090°08'0 0.1
2016-Jul-08 19:29N 29°56' W 090°08'  
Track history (hours):
 
Tides and Currents Weather Stations Pressure Air Temp Water Temp Dewpoint Dewpoint Depression Visibility Wind Speed Wind Dir Waves Ship Positions

Vera Bisso

Owner: E.N. Bisso & Son, Inc, New Orleans, LA. More information available from US FCC via Universal Licensing System and Coast Guard Vessel Documentation Center.

Last reported at 2016-Jul-16 07:10 UTC. Time now 2016-Jul-26 10:17 UTC.
Position N 29°57' W 090°23'.
Warning: this ship's position is 10 days out of date.

Length 30 m; draft 6 m.

Type: Tug. MMSI: 367001730.

Date/timePositionNaut miles runAvg speedWind from/ knotsBaromVisibWave heightAir tempDewpointWater temp
2016-Jul-16 07:10N 29°57' W 090°23'0 0.0
2016-Jul-16 04:26N 29°57' W 090°23'0 0.0
2016-Jul-16 03:33N 29°57' W 090°23'0 0.0
2016-Jul-16 02:31N 29°57' W 090°23'0 0.0
2016-Jul-16 01:06N 29°57' W 090°23'0 0.0
2016-Jul-16 00:29N 29°57' W 090°23'12 0.5
2016-Jul-15 01:32N 29°57' W 090°09'2 0.5
2016-Jul-14 21:28N 29°55' W 090°08'0 0.0
2016-Jul-14 20:33N 29°55' W 090°08'0 0.0
2016-Jul-14 19:16N 29°55' W 090°08'0 0.0
2016-Jul-14 18:33N 29°55' W 090°08'0 0.0
2016-Jul-14 17:33N 29°55' W 090°08'0 0.0
2016-Jul-14 16:33N 29°55' W 090°08'0 0.0
2016-Jul-14 15:33N 29°55' W 090°08'0 0.0
2016-Jul-14 14:31N 29°55' W 090°08'0 0.2
2016-Jul-14 13:33N 29°55' W 090°08'3 2.7
2016-Jul-14 12:33N 29°55' W 090°05'0 0.2
2016-Jul-14 11:33N 29°55' W 090°05'1 0.8
2016-Jul-14 10:33N 29°55' W 090°06'0 0.0
2016-Jul-14 09:33N 29°55' W 090°06'0 0.0
2016-Jul-14 08:33N 29°55' W 090°06'0 0.0
2016-Jul-14 07:33N 29°55' W 090°06'0 0.0
2016-Jul-14 06:33N 29°55' W 090°06'0 0.0
2016-Jul-14 05:33N 29°55' W 090°06'0 0.0
2016-Jul-14 04:33N 29°55' W 090°06'0 0.0
2016-Jul-14 03:33N 29°55' W 090°06'0 0.0
2016-Jul-14 02:33N 29°55' W 090°06'0 0.3
2016-Jul-14 01:33N 29°55' W 090°06'3 2.6
2016-Jul-14 00:33N 29°57' W 090°03'1 0.5
2016-Jul-13 23:34N 29°56' W 090°03'1 0.7
2016-Jul-13 22:33N 29°55' W 090°04'4 3.7
2016-Jul-13 21:33N 29°55' W 090°08'0 0.0
2016-Jul-13 20:33N 29°55' W 090°08'0 0.0
2016-Jul-13 19:17N 29°55' W 090°08'0 0.0
2016-Jul-13 18:33N 29°55' W 090°08'0 0.0
2016-Jul-13 17:33N 29°55' W 090°08'0 0.0
2016-Jul-13 16:33N 29°55' W 090°08'3 3.1
2016-Jul-13 15:33N 29°55' W 090°05'0 0.5
2016-Jul-13 14:33N 29°55' W 090°04'0 0.0
2016-Jul-13 13:33N 29°55' W 090°04'4 3.8
2016-Jul-13 12:33N 29°57' W 090°00'1 0.5
2016-Jul-13 11:33N 29°56' W 089°60'2 1.5
2016-Jul-13 10:33N 29°57' W 090°01'0 0.0
2016-Jul-13 09:33N 29°57' W 090°01'5 5.1
2016-Jul-13 08:33N 29°55' W 090°06'2 2.1
2016-Jul-13 07:29N 29°56' W 090°08'0 0.5
2016-Jul-13 06:33N 29°55' W 090°08'1 0.9
2016-Jul-13 05:28N 29°56' W 090°09'3 3.0
2016-Jul-13 04:33N 29°55' W 090°06'0 0.0
2016-Jul-13 03:33N 29°55' W 090°06'0 0.0
2016-Jul-13 02:33N 29°55' W 090°06'0 0.0
2016-Jul-13 01:30N 29°55' W 090°06'0 0.0
2016-Jul-13 00:32N 29°55' W 090°06'0 0.0
2016-Jul-12 23:33N 29°55' W 090°06'0 0.0
2016-Jul-12 22:33N 29°55' W 090°06'1 1.2
2016-Jul-12 21:33N 29°55' W 090°05'6 6.0
2016-Jul-12 20:31N 29°55' W 090°12'3 2.5
2016-Jul-12 19:30N 29°57' W 090°09'2 2.0
2016-Jul-12 18:33N 29°56' W 090°08'0 0.0
2016-Jul-12 17:33N 29°56' W 090°08'0 0.0
2016-Jul-12 16:33N 29°56' W 090°08'0 0.0
2016-Jul-12 15:33N 29°56' W 090°08'0 0.0
2016-Jul-12 14:33N 29°56' W 090°08'0 0.4
2016-Jul-12 13:33N 29°56' W 090°08'0 0.4
2016-Jul-12 12:33N 29°56' W 090°09'1 0.8
2016-Jul-12 11:33N 29°56' W 090°08'0 0.0
2016-Jul-12 10:34N 29°56' W 090°08'0 0.0
2016-Jul-12 09:33N 29°56' W 090°08'0 0.0
2016-Jul-12 08:33N 29°56' W 090°08'0 0.0
2016-Jul-12 07:33N 29°56' W 090°08'0 0.0
2016-Jul-12 06:33N 29°56' W 090°08'0 0.0
2016-Jul-12 05:33N 29°56' W 090°08'0 0.0
2016-Jul-12 04:33N 29°56' W 090°08'0 0.0
2016-Jul-12 03:33N 29°56' W 090°08'0 0.0
2016-Jul-12 02:33N 29°56' W 090°08'0 0.0
2016-Jul-12 01:33N 29°56' W 090°08'0 0.0
2016-Jul-12 00:33N 29°56' W 090°08'0 0.0
2016-Jul-11 23:33N 29°56' W 090°08'0 0.0
2016-Jul-11 22:33N 29°56' W 090°08'0 0.0
2016-Jul-11 21:33N 29°56' W 090°08'0 0.0
2016-Jul-11 20:34N 29°56' W 090°08'0 0.0
2016-Jul-11 19:33N 29°56' W 090°08'0 0.0
2016-Jul-11 18:33N 29°56' W 090°08'0 0.0
2016-Jul-11 17:33N 29°56' W 090°08'0 0.0
2016-Jul-11 16:33N 29°56' W 090°08'0 0.0
2016-Jul-11 15:33N 29°56' W 090°08'0 0.0
2016-Jul-11 14:33N 29°56' W 090°08'0 0.0
2016-Jul-11 13:33N 29°56' W 090°08'0 0.0
2016-Jul-11 12:32N 29°56' W 090°08'0 0.0
2016-Jul-11 11:33N 29°56' W 090°08'0 0.0
2016-Jul-11 10:33N 29°56' W 090°08'0 0.0
2016-Jul-11 09:33N 29°56' W 090°08'0 0.0
2016-Jul-11 08:33N 29°56' W 090°08'0 0.0
2016-Jul-11 07:33N 29°56' W 090°08'1 1.0
2016-Jul-11 06:33N 29°56' W 090°09'1 0.3
2016-Jul-11 04:33N 29°56' W 090°08'0 0.4
2016-Jul-11 03:30N 29°56' W 090°09'1 1.0
2016-Jul-11 02:34N 29°56' W 090°08'0 0.0
2016-Jul-11 01:33N 29°56' W 090°08'0 0.0
2016-Jul-11 00:33N 29°56' W 090°08'0 0.0
2016-Jul-10 23:33N 29°56' W 090°08'0 0.0
2016-Jul-10 22:33N 29°56' W 090°08'0 0.0
2016-Jul-10 21:33N 29°56' W 090°08'0 0.0
2016-Jul-10 20:33N 29°56' W 090°08'0 0.0
2016-Jul-10 19:33N 29°56' W 090°08'0 0.0
2016-Jul-10 18:33N 29°56' W 090°08'0 0.0
2016-Jul-10 17:33N 29°56' W 090°08'0 0.0
2016-Jul-10 16:33N 29°56' W 090°08'0 0.0
2016-Jul-10 15:33N 29°56' W 090°08'0 0.0
2016-Jul-10 14:33N 29°56' W 090°08'0 0.0
2016-Jul-10 13:33N 29°56' W 090°08'0 0.0
2016-Jul-10 12:33N 29°56' W 090°08'3 2.5
2016-Jul-10 11:33N 29°55' W 090°05'2 2.5
2016-Jul-10 10:33N 29°55' W 090°08'0 0.0
2016-Jul-10 09:33N 29°55' W 090°08'0 0.0
2016-Jul-10 08:33N 29°55' W 090°08'0 0.0
2016-Jul-10 07:33N 29°55' W 090°08'0 0.0
2016-Jul-10 06:33N 29°55' W 090°08'0 0.0
2016-Jul-10 05:33N 29°55' W 090°08'0 0.0
2016-Jul-10 04:33N 29°55' W 090°08'0 0.0
2016-Jul-10 03:33N 29°55' W 090°08'0 0.0
2016-Jul-10 02:33N 29°55' W 090°08'0 0.0
2016-Jul-10 01:33N 29°55' W 090°08'0 0.0
2016-Jul-10 00:33N 29°55' W 090°08'0 0.0
2016-Jul-09 23:33N 29°55' W 090°08'0 0.0
2016-Jul-09 22:34N 29°55' W 090°08'0 0.0
2016-Jul-09 21:33N 29°55' W 090°08'0 0.0
2016-Jul-09 20:33N 29°55' W 090°08'0 0.0
2016-Jul-09 19:33N 29°55' W 090°08'0 0.0
2016-Jul-09 18:33N 29°55' W 090°08'0 0.0
2016-Jul-09 17:33N 29°55' W 090°08'0 0.0
2016-Jul-09 16:34N 29°55' W 090°08'0 0.0
2016-Jul-09 15:33N 29°55' W 090°08'0 0.0
2016-Jul-09 14:33N 29°55' W 090°08'0 0.0
2016-Jul-09 13:34N 29°55' W 090°08'0 0.0
2016-Jul-09 12:33N 29°55' W 090°08'0 0.0
2016-Jul-09 11:34N 29°55' W 090°08'0 0.0
2016-Jul-09 10:34N 29°55' W 090°08'0 0.0
2016-Jul-09 09:33N 29°55' W 090°08'0 0.0
2016-Jul-09 08:33N 29°55' W 090°08'0 0.0
2016-Jul-09 07:33N 29°55' W 090°08'0 0.0
2016-Jul-09 06:34N 29°55' W 090°08'0 0.0
2016-Jul-09 04:33N 29°55' W 090°08'0 0.0
2016-Jul-09 03:33N 29°55' W 090°08'0 0.0
2016-Jul-09 02:33N 29°55' W 090°08'0 0.0
2016-Jul-09 01:33N 29°55' W 090°08'0 0.0
2016-Jul-09 00:34N 29°55' W 090°08'0 0.0
2016-Jul-08 23:33N 29°55' W 090°08'0 0.0
2016-Jul-08 22:33N 29°55' W 090°08'0 0.0
2016-Jul-08 21:33N 29°55' W 090°08'0 0.0
2016-Jul-08 20:33N 29°55' W 090°08'0 0.1
2016-Jul-08 19:29N 29°56' W 090°08'  

Dump ship's entire track history